Usolie — D5AZ6 — position and weather

sailwx.info

Track history (hours):
 
Tides and Currents Weather Stations Pressure Air Temp Water Temp Dewpoint Dewpoint Depression Visibility Wind Speed Wind Dir Waves Ship Positions

Usolie

Last reported at 2018-Jun-18 02:29 UTC. Time now 2018-Jun-21 16:30 UTC.
Position N 55°42' E 021°08'.

Length 225 m; draft 12.9 m.

Type: Ship. MMSI: 636015477.

Date/timePositionNaut miles runAvg speedWind from/ knotsBaromVisibWave heightAir tempDewpointWater temp
2018-Jun-18 02:29N 55°42' E 021°08'0 0.0
2018-Jun-18 00:05N 55°42' E 021°08'0 0.0
2018-Jun-17 23:58N 55°42' E 021°08'0 0.0
2018-Jun-17 23:30N 55°42' E 021°08'0 0.0
2018-Jun-17 08:07N 55°42' E 021°08'0 0.0
2018-Jun-17 08:00N 55°42' E 021°08'0 0.0
2018-Jun-17 07:30N 55°42' E 021°08'0 0.0
2018-Jun-17 07:00N 55°42' E 021°08'0 0.0
2018-Jun-17 06:30N 55°42' E 021°08'0 0.0
2018-Jun-17 05:59N 55°42' E 021°08'0 0.0
2018-Jun-17 03:41N 55°42' E 021°08'0 0.0
2018-Jun-17 00:49N 55°42' E 021°08'0 0.0
2018-Jun-17 00:30N 55°42' E 021°08'0 0.0
2018-Jun-16 23:59N 55°42' E 021°08'0 0.0
2018-Jun-16 00:00N 55°41' E 021°08'0 0.0
2018-Jun-15 23:19N 55°41' E 021°08'0 0.0
2018-Jun-15 22:26N 55°41' E 021°08'0 0.0
2018-Jun-15 22:00N 55°41' E 021°08'0 0.0
2018-Jun-15 21:30N 55°41' E 021°08'0 0.0
2018-Jun-15 19:34N 55°41' E 021°08'0 0.1
2018-Jun-15 19:30N 55°41' E 021°08'0 0.0
2018-Jun-15 18:59N 55°41' E 021°08'0 0.0
2018-Jun-15 18:31N 55°41' E 021°08'0 0.0
2018-Jun-15 17:41N 55°41' E 021°08'0 0.0
2018-Jun-15 17:30N 55°41' E 021°08'0 0.0
2018-Jun-15 14:51N 55°41' E 021°08'0 0.0
2018-Jun-15 14:21N 55°41' E 021°08'0 0.0
2018-Jun-15 14:00N 55°41' E 021°08'186 6.5
2018-Jun-14 09:26N 55°31' E 015°39'511.2
2018-Jun-14 09:00N 55°30' E 015°31'611.3
2018-Jun-14 08:30N 55°28' E 015°22'611.2
2018-Jun-14 08:00N 55°27' E 015°12'611.2
2018-Jun-14 07:30N 55°26' E 015°02'611.4
2018-Jun-14 07:00N 55°25' E 014°52'611.2
2018-Jun-14 06:30N 55°23' E 014°43'610.9
2018-Jun-14 05:59N 55°20' E 014°35'511.0
2018-Jun-14 05:30N 55°16' E 014°29'611.0
2018-Jun-14 04:58N 55°12' E 014°22'511.2
2018-Jun-14 04:30N 55°08' E 014°16'611.2
2018-Jun-14 04:00N 55°03' E 014°10'5811.0
2018-Jun-13 22:45N 54°43' E 012°36'311.6
2018-Jun-13 22:30N 54°42' E 012°32'611.9
2018-Jun-13 22:00N 54°38' E 012°24'810.0
2018-Jun-13 21:09N 54°32' E 012°15'2 8.2
2018-Jun-13 20:51N 54°29' E 012°14'2 6.5
2018-Jun-13 20:30N 54°27' E 012°12'4 6.9
2018-Jun-13 20:00N 54°25' E 012°08'5 9.1
2018-Jun-13 19:30N 54°25' E 011°60'8 9.3
2018-Jun-13 18:38N 54°25' E 011°46'711.5
2018-Jun-13 18:02N 54°28' E 011°35'011.5
2018-Jun-13 18:00N 54°28' E 011°35'612.1
2018-Jun-13 17:31N 54°31' E 011°26'612.5
2018-Jun-13 17:00N 54°33' E 011°16'612.3
2018-Jun-13 16:30N 54°35' E 011°06'612.5
2018-Jun-13 16:00N 54°37' E 010°55'612.0
2018-Jun-13 15:30N 54°40' E 010°47'611.2
2018-Jun-13 15:00N 54°46' E 010°48'612.5
2018-Jun-13 14:30N 54°52' E 010°50'611.8
2018-Jun-13 14:00N 54°57' E 010°55'611.9
2018-Jun-13 13:30N 55°02' E 010°60'611.9
2018-Jun-13 13:01N 55°08' E 010°59'5 9.8
2018-Jun-13 12:30N 55°12' E 011°05'510.6
2018-Jun-13 12:00N 55°17' E 011°03'9010.2
2018-Jun-13 03:11N 56°43' E 011°50'3810.7
2018-Jun-12 23:37N 57°20' E 011°30'111.1
2018-Jun-12 23:30N 57°21' E 011°29'611.3
2018-Jun-12 23:00N 57°26' E 011°25'510.9
2018-Jun-12 22:30N 57°30' E 011°19'611.1
2018-Jun-12 22:00N 57°34' E 011°11'611.0
2018-Jun-12 21:30N 57°38' E 011°04'611.2
2018-Jun-12 20:58N 57°42' E 010°56'511.3
2018-Jun-12 20:30N 57°45' E 010°48'510.3
2018-Jun-12 20:00N 57°47' E 010°39'510.7
2018-Jun-12 19:30N 57°47' E 010°29'510.4
2018-Jun-12 19:00N 57°46' E 010°19'611.7
2018-Jun-12 18:30N 57°46' E 010°08'611.3
2018-Jun-12 18:00N 57°45' E 009°58'611.0
2018-Jun-12 17:30N 57°45' E 009°47'510.9
2018-Jun-12 17:00N 57°44' E 009°37'510.7
2018-Jun-12 16:30N 57°44' E 009°27'510.8
2018-Jun-12 16:00N 57°44' E 009°17'611.0
2018-Jun-12 15:29N 57°44' E 009°07'5211.1
2018-Jun-12 10:49N 57°41' E 007°30'411.0
2018-Jun-12 10:29N 57°42' E 007°23'510.8
2018-Jun-12 10:00N 57°42' E 007°13'910.5
2018-Jun-12 09:09N 57°42' E 006°56'210.4
2018-Jun-12 09:00N 57°41' E 006°54'5610.7
2018-Jun-12 03:48N 58°13' E 005°27'610.7
2018-Jun-12 03:15N 58°17' E 005°19'511.1
2018-Jun-12 02:49N 58°20' E 005°13'710.9
2018-Jun-12 02:08N 58°26' E 005°03'210.8
2018-Jun-12 01:59N 58°27' E 005°01'611.1
2018-Jun-12 01:28N 58°31' E 004°54'611.1
2018-Jun-12 00:56N 58°36' E 004°46'1211.0
2018-Jun-11 23:53N 58°44' E 004°30'  
Track history (hours):
 
Tides and Currents Weather Stations Pressure Air Temp Water Temp Dewpoint Dewpoint Depression Visibility Wind Speed Wind Dir Waves Ship Positions

Usolie

Last reported at 2018-Jun-18 02:29 UTC. Time now 2018-Jun-21 16:30 UTC.
Position N 55°42' E 021°08'.

Length 225 m; draft 12.9 m.

Type: Ship. MMSI: 636015477.

Date/timePositionNaut miles runAvg speedWind from/ knotsBaromVisibWave heightAir tempDewpointWater temp
2018-Jun-18 02:29N 55°42' E 021°08'0 0.0
2018-Jun-18 00:05N 55°42' E 021°08'0 0.0
2018-Jun-17 23:58N 55°42' E 021°08'0 0.0
2018-Jun-17 23:30N 55°42' E 021°08'0 0.0
2018-Jun-17 08:07N 55°42' E 021°08'0 0.0
2018-Jun-17 08:00N 55°42' E 021°08'0 0.0
2018-Jun-17 07:30N 55°42' E 021°08'0 0.0
2018-Jun-17 07:00N 55°42' E 021°08'0 0.0
2018-Jun-17 06:30N 55°42' E 021°08'0 0.0
2018-Jun-17 05:59N 55°42' E 021°08'0 0.0
2018-Jun-17 03:41N 55°42' E 021°08'0 0.0
2018-Jun-17 00:49N 55°42' E 021°08'0 0.0
2018-Jun-17 00:30N 55°42' E 021°08'0 0.0
2018-Jun-16 23:59N 55°42' E 021°08'0 0.0
2018-Jun-16 00:00N 55°41' E 021°08'0 0.0
2018-Jun-15 23:19N 55°41' E 021°08'0 0.0
2018-Jun-15 22:26N 55°41' E 021°08'0 0.0
2018-Jun-15 22:00N 55°41' E 021°08'0 0.0
2018-Jun-15 21:30N 55°41' E 021°08'0 0.0
2018-Jun-15 19:34N 55°41' E 021°08'0 0.1
2018-Jun-15 19:30N 55°41' E 021°08'0 0.0
2018-Jun-15 18:59N 55°41' E 021°08'0 0.0
2018-Jun-15 18:31N 55°41' E 021°08'0 0.0
2018-Jun-15 17:41N 55°41' E 021°08'0 0.0
2018-Jun-15 17:30N 55°41' E 021°08'0 0.0
2018-Jun-15 14:51N 55°41' E 021°08'0 0.0
2018-Jun-15 14:21N 55°41' E 021°08'0 0.0
2018-Jun-15 14:00N 55°41' E 021°08'186 6.5
2018-Jun-14 09:26N 55°31' E 015°39'511.2
2018-Jun-14 09:00N 55°30' E 015°31'611.3
2018-Jun-14 08:30N 55°28' E 015°22'611.2
2018-Jun-14 08:00N 55°27' E 015°12'611.2
2018-Jun-14 07:30N 55°26' E 015°02'611.4
2018-Jun-14 07:00N 55°25' E 014°52'611.2
2018-Jun-14 06:30N 55°23' E 014°43'610.9
2018-Jun-14 05:59N 55°20' E 014°35'511.0
2018-Jun-14 05:30N 55°16' E 014°29'611.0
2018-Jun-14 04:58N 55°12' E 014°22'511.2
2018-Jun-14 04:30N 55°08' E 014°16'611.2
2018-Jun-14 04:00N 55°03' E 014°10'5811.0
2018-Jun-13 22:45N 54°43' E 012°36'311.6
2018-Jun-13 22:30N 54°42' E 012°32'611.9
2018-Jun-13 22:00N 54°38' E 012°24'810.0
2018-Jun-13 21:09N 54°32' E 012°15'2 8.2
2018-Jun-13 20:51N 54°29' E 012°14'2 6.5
2018-Jun-13 20:30N 54°27' E 012°12'4 6.9
2018-Jun-13 20:00N 54°25' E 012°08'5 9.1
2018-Jun-13 19:30N 54°25' E 011°60'8 9.3
2018-Jun-13 18:38N 54°25' E 011°46'711.5
2018-Jun-13 18:02N 54°28' E 011°35'011.5
2018-Jun-13 18:00N 54°28' E 011°35'612.1
2018-Jun-13 17:31N 54°31' E 011°26'612.5
2018-Jun-13 17:00N 54°33' E 011°16'612.3
2018-Jun-13 16:30N 54°35' E 011°06'612.5
2018-Jun-13 16:00N 54°37' E 010°55'612.0
2018-Jun-13 15:30N 54°40' E 010°47'611.2
2018-Jun-13 15:00N 54°46' E 010°48'612.5
2018-Jun-13 14:30N 54°52' E 010°50'611.8
2018-Jun-13 14:00N 54°57' E 010°55'611.9
2018-Jun-13 13:30N 55°02' E 010°60'611.9
2018-Jun-13 13:01N 55°08' E 010°59'5 9.8
2018-Jun-13 12:30N 55°12' E 011°05'510.6
2018-Jun-13 12:00N 55°17' E 011°03'9010.2
2018-Jun-13 03:11N 56°43' E 011°50'3810.7
2018-Jun-12 23:37N 57°20' E 011°30'111.1
2018-Jun-12 23:30N 57°21' E 011°29'611.3
2018-Jun-12 23:00N 57°26' E 011°25'510.9
2018-Jun-12 22:30N 57°30' E 011°19'611.1
2018-Jun-12 22:00N 57°34' E 011°11'611.0
2018-Jun-12 21:30N 57°38' E 011°04'611.2
2018-Jun-12 20:58N 57°42' E 010°56'511.3
2018-Jun-12 20:30N 57°45' E 010°48'510.3
2018-Jun-12 20:00N 57°47' E 010°39'510.7
2018-Jun-12 19:30N 57°47' E 010°29'510.4
2018-Jun-12 19:00N 57°46' E 010°19'611.7
2018-Jun-12 18:30N 57°46' E 010°08'611.3
2018-Jun-12 18:00N 57°45' E 009°58'611.0
2018-Jun-12 17:30N 57°45' E 009°47'510.9
2018-Jun-12 17:00N 57°44' E 009°37'510.7
2018-Jun-12 16:30N 57°44' E 009°27'510.8
2018-Jun-12 16:00N 57°44' E 009°17'611.0
2018-Jun-12 15:29N 57°44' E 009°07'5211.1
2018-Jun-12 10:49N 57°41' E 007°30'411.0
2018-Jun-12 10:29N 57°42' E 007°23'510.8
2018-Jun-12 10:00N 57°42' E 007°13'910.5
2018-Jun-12 09:09N 57°42' E 006°56'210.4
2018-Jun-12 09:00N 57°41' E 006°54'5610.7
2018-Jun-12 03:48N 58°13' E 005°27'610.7
2018-Jun-12 03:15N 58°17' E 005°19'511.1
2018-Jun-12 02:49N 58°20' E 005°13'710.9
2018-Jun-12 02:08N 58°26' E 005°03'210.8
2018-Jun-12 01:59N 58°27' E 005°01'611.1
2018-Jun-12 01:28N 58°31' E 004°54'611.1
2018-Jun-12 00:56N 58°36' E 004°46'1211.0
2018-Jun-11 23:53N 58°44' E 004°30'  

Dump ship's entire track history